Time;durP1;ratioP1;P1;durP2;ratioP2;P2;SDS_P1;SDS_P2;PMS_P1;PMS_P2;Temp;Humidity;BMP_temperature;BMP_pressure;BME280_temperature;BME280_humidity;BME280_pressure;Samples;Min_cycle;Max_cycle;Signal;HPM_P1;HPM_P2
2022/01/17 00:02:22;;;;;;;5.83;4.90;;;16.70;63.30;;;;;;5074894;28;20177;-22
2022/01/17 00:04:49;;;;;;;6.47;5.33;;;16.70;63.40;;;;;;5057137;28;20285;-23
2022/01/17 00:07:15;;;;;;;5.70;4.90;;;16.60;63.40;;;;;;5074621;28;20446;-23
2022/01/17 00:09:42;;;;;;;6.50;4.60;;;16.60;63.80;;;;;;5056255;28;20176;-19
2022/01/17 00:12:09;;;;;;;5.93;4.90;;;16.60;63.80;;;;;;5055107;28;20260;-22
2022/01/17 00:14:39;;;;;;;6.73;5.43;;;16.60;63.90;;;;;;5053542;28;20190;-24
2022/01/17 00:17:35;;;;;;;7.73;5.10;;;16.60;64.00;;;;;;5072455;28;20184;-23
2022/01/17 00:19:56;;;;;;;6.57;5.17;;;16.60;64.10;;;;;;5072141;28;20284;-22
2022/01/17 00:22:23;;;;;;;6.07;5.00;;;16.60;64.10;;;;;;5073445;28;20185;-23
2022/01/17 00:24:50;;;;;;;6.00;5.07;;;16.60;64.00;;;;;;5056614;28;20604;-22
2022/01/17 00:27:19;;;;;;;5.90;4.90;;;16.60;64.20;;;;;;5074611;28;20540;-23
2022/01/17 00:29:44;;;;;;;6.73;4.93;;;16.50;64.20;;;;;;5074113;28;20172;-24
2022/01/17 00:32:10;;;;;;;5.10;4.53;;;16.50;65.00;;;;;;5074540;28;20186;-24
2022/01/17 00:34:36;;;;;;;5.97;5.07;;;16.50;64.40;;;;;;5055790;28;20184;-23
2022/01/17 00:37:02;;;;;;;5.97;4.80;;;16.60;64.50;;;;;;5055413;28;20581;-23
2022/01/17 00:39:27;;;;;;;5.30;4.80;;;16.50;64.50;;;;;;5073021;28;20176;-23
2022/01/17 00:41:53;;;;;;;5.20;4.70;;;16.50;64.60;;;;;;5075332;28;20183;-21
2022/01/17 00:44:21;;;;;;;6.23;5.27;;;16.50;64.80;;;;;;5078568;28;20213;-21
2022/01/17 00:46:48;;;;;;;5.60;4.77;;;16.50;64.90;;;;;;5060971;28;20487;-24
2022/01/17 00:49:14;;;;;;;5.47;4.57;;;16.50;65.00;;;;;;5078624;28;20174;-23
2022/01/17 00:51:40;;;;;;;5.20;4.57;;;16.40;65.00;;;;;;5078034;28;20168;-23
2022/01/17 00:54:05;;;;;;;6.33;5.07;;;16.40;65.00;;;;;;5077647;28;20242;-23
2022/01/17 00:56:31;;;;;;;5.93;5.23;;;16.40;65.10;;;;;;5076889;28;20188;-23
2022/01/17 00:58:57;;;;;;;5.00;4.33;;;16.40;65.20;;;;;;5076719;28;20201;-24
2022/01/17 01:01:23;;;;;;;6.07;4.73;;;16.40;65.40;;;;;;5076280;28;20172;-23
2022/01/17 01:03:49;;;;;;;6.27;5.10;;;16.40;65.50;;;;;;5076349;28;20178;-23
2022/01/17 01:06:15;;;;;;;5.47;4.77;;;16.40;65.50;;;;;;5060477;28;20584;-20
2022/01/17 01:08:41;;;;;;;6.60;5.20;;;16.40;65.60;;;;;;5060736;28;20218;-22
2022/01/17 01:11:07;;;;;;;5.03;4.53;;;16.30;65.70;;;;;;5077834;28;20197;-22
2022/01/17 01:13:33;;;;;;;5.53;4.97;;;16.30;65.90;;;;;;5060376;28;20179;-23
2022/01/17 01:29:21;;;;;;;5.17;4.63;;;16.40;65.80;;;;;;5077638;28;20241;-20
2022/01/17 01:31:52;;;;;;;5.57;4.80;;;16.40;65.30;;;;;;5060991;28;20176;-21
2022/01/17 01:34:25;;;;;;;6.40;4.80;;;16.40;65.00;;;;;;5059871;28;20205;-22
2022/01/17 01:36:51;;;;;;;5.63;4.43;;;16.50;64.90;;;;;;5060553;28;20179;-22
2022/01/17 01:39:22;;;;;;;5.63;4.77;;;16.50;64.30;;;;;;5060284;28;20195;-22
2022/01/17 01:41:48;;;;;;;5.27;4.77;;;16.50;64.00;;;;;;5058837;28;20186;-23
2022/01/17 01:44:19;;;;;;;5.30;4.57;;;16.60;64.00;;;;;;5058358;28;20484;-22
2022/01/17 01:46:47;;;;;;;5.20;4.50;;;16.60;63.70;;;;;;5076271;28;20252;-23
2022/01/17 01:49:14;;;;;;;5.43;4.77;;;16.60;63.40;;;;;;5058723;28;20645;-23
2022/01/17 01:51:41;;;;;;;4.77;4.27;;;16.70;63.20;;;;;;5077625;28;20568;-23
2022/01/17 01:54:08;;;;;;;6.50;4.87;;;16.70;62.90;;;;;;5076680;28;20217;-27
2022/01/17 01:56:48;;;;;;;5.20;4.70;;;16.70;62.80;;;;;;5056377;28;20180;-24
2022/01/17 01:59:16;;;;;;;6.50;4.83;;;16.70;63.20;;;;;;5066836;28;20212;-25
2022/01/17 02:01:42;;;;;;;5.70;4.63;;;16.70;62.80;;;;;;5075015;28;20330;-24
2022/01/17 02:04:08;;;;;;;5.00;4.50;;;16.70;62.90;;;;;;5056365;28;20309;-24
2022/01/17 02:06:34;;;;;;;5.43;4.47;;;16.70;62.90;;;;;;5073840;28;20172;-22
2022/01/17 02:09:05;;;;;;;6.00;4.70;;;16.70;63.10;;;;;;5058046;28;20319;-25
2022/01/17 02:11:35;;;;;;;5.67;4.27;;;16.70;62.80;;;;;;5058885;28;20272;-24
2022/01/17 02:14:01;;;;;;;4.93;4.30;;;16.70;62.90;;;;;;5076538;28;20205;-21
2022/01/17 02:16:27;;;;;;;6.27;4.80;;;16.60;63.10;;;;;;5076203;28;20680;-22
2022/01/17 02:18:53;;;;;;;4.87;4.33;;;16.60;63.10;;;;;;5076104;28;20278;-21
2022/01/17 02:21:32;;;;;;;5.33;4.60;;;16.60;63.30;;;;;;5075535;28;20208;-22
2022/01/17 02:23:58;;;;;;;6.53;4.83;;;16.60;63.40;;;;;;5058147;28;20604;-24
2022/01/17 02:26:24;;;;;;;6.80;5.10;;;16.60;63.50;;;;;;5075140;28;20164;-22
2022/01/17 02:28:52;;;;;;;4.73;4.27;;;16.50;63.60;;;;;;5075474;28;20518;-22
2022/01/17 02:31:20;;;;;;;5.50;5.00;;;16.50;63.90;;;;;;5074208;28;20215;-22
2022/01/17 02:33:46;;;;;;;5.40;4.80;;;16.50;64.10;;;;;;5057264;28;20183;-22
2022/01/17 02:36:12;;;;;;;5.60;4.40;;;16.50;64.20;;;;;;5057451;28;20234;-23
2022/01/17 02:38:39;;;;;;;4.73;4.23;;;16.40;64.20;;;;;;5074475;28;20264;-23
2022/01/17 02:41:06;;;;;;;5.03;4.37;;;16.40;64.30;;;;;;5057787;28;20183;-24
2022/01/17 02:43:32;;;;;;;6.10;4.77;;;16.40;64.60;;;;;;5075210;28;20226;-22
2022/01/17 02:48:34;;;;;;;5.87;4.93;;;16.40;64.80;;;;;;5075485;28;20259;-22
2022/01/17 02:51:01;;;;;;;6.37;4.63;;;16.40;64.90;;;;;;5057056;28;20180;-23
2022/01/17 02:53:27;;;;;;;5.33;4.67;;;16.30;65.60;;;;;;5058017;28;20241;-22
2022/01/17 02:56:02;;;;;;;7.17;4.87;;;16.30;65.20;;;;;;5075774;28;20188;-22
2022/01/17 02:58:32;;;;;;;6.20;4.87;;;16.30;65.20;;;;;;5057694;28;20180;-24
2022/01/17 03:01:00;;;;;;;6.57;5.07;;;16.30;65.30;;;;;;5057989;28;20186;-24
2022/01/17 03:03:28;;;;;;;6.03;4.90;;;16.30;65.20;;;;;;5057862;28;20233;-23
2022/01/17 03:05:55;;;;;;;4.93;4.43;;;16.30;65.20;;;;;;5073537;28;20260;-22
2022/01/17 03:08:23;;;;;;;5.77;4.80;;;16.40;65.00;;;;;;5075982;28;20258;-22
2022/01/17 03:10:50;;;;;;;5.97;5.27;;;16.40;65.00;;;;;;5057529;28;20199;-21
2022/01/17 03:13:24;;;;;;;6.67;5.37;;;16.40;64.80;;;;;;5057161;28;20574;-21
2022/01/17 03:15:57;;;;;;;6.63;5.33;;;16.40;64.70;;;;;;5014029;28;1226852;-23
2022/01/17 03:18:24;;;;;;;6.30;5.47;;;16.40;64.60;;;;;;5075518;28;20172;-22
2022/01/17 03:20:50;;;;;;;5.93;4.93;;;16.40;64.70;;;;;;5092006;28;20584;-20
2022/01/17 03:23:16;;;;;;;6.30;5.40;;;16.40;64.50;;;;;;5095945;28;20171;-22
2022/01/17 03:25:42;;;;;;;7.27;5.63;;;16.40;64.50;;;;;;5096166;28;20209;-23
2022/01/17 03:28:08;;;;;;;6.67;5.37;;;16.40;64.30;;;;;;5095749;28;20169;-23
2022/01/17 03:30:35;;;;;;;6.87;5.27;;;16.40;64.40;;;;;;5078803;28;20168;-21
2022/01/17 03:33:09;;;;;;;6.37;5.47;;;16.40;64.10;;;;;;5096002;28;20257;-22
2022/01/17 03:35:39;;;;;;;7.03;5.60;;;16.40;64.20;;;;;;5078625;28;20178;-24
2022/01/17 03:38:09;;;;;;;6.60;5.20;;;16.40;64.20;;;;;;5095093;28;20557;-23
2022/01/17 03:40:36;;;;;;;6.60;5.20;;;16.30;64.40;;;;;;5076382;28;20172;-23
2022/01/17 03:43:02;;;;;;;6.13;5.50;;;16.30;64.70;;;;;;5077412;28;20175;-22
2022/01/17 03:45:27;;;;;;;6.43;5.50;;;16.30;65.70;;;;;;5077388;28;20210;-27
2022/01/17 03:47:54;;;;;;;6.67;5.17;;;16.20;65.20;;;;;;5095732;28;20201;-22
2022/01/17 03:50:21;;;;;;;7.43;5.43;;;16.20;65.60;;;;;;5094894;28;20326;-23
2022/01/17 03:52:48;;;;;;;6.10;5.37;;;16.10;65.90;;;;;;5095475;28;20571;-25
2022/01/17 03:55:18;;;;;;;6.10;5.50;;;16.10;66.10;;;;;;5095368;28;20203;-21
2022/01/17 03:57:44;;;;;;;6.53;5.57;;;16.10;66.60;;;;;;5076726;28;20314;-22
2022/01/17 04:00:20;;;;;;;6.33;5.47;;;16.00;66.90;;;;;;5076912;28;20276;-23
2022/01/17 04:02:47;;;;;;;6.87;5.53;;;16.00;67.30;;;;;;5094676;28;20198;-21
2022/01/17 04:05:13;;;;;;;7.97;5.47;;;16.00;67.40;;;;;;5076408;28;20300;-23
2022/01/17 04:07:39;;;;;;;6.80;5.27;;;17.20;60.70;;;;;;5094542;28;20303;-19
2022/01/17 04:10:05;;;;;;;5.77;5.13;;;19.30;54.50;;;;;;5077701;28;20169;-22
2022/01/17 04:12:31;;;;;;;5.50;4.67;;;20.20;51.00;;;;;;5077709;28;20428;-22
2022/01/17 04:14:57;;;;;;;6.07;4.90;;;20.20;50.50;;;;;;5076953;28;20468;-22
2022/01/17 04:17:27;;;;;;;6.63;5.17;;;20.40;50.00;;;;;;5095154;28;20639;-24
2022/01/17 04:20:02;;;;;;;6.83;4.97;;;20.60;49.60;;;;;;5093981;28;20655;-23
2022/01/17 04:22:38;;;;;;;5.73;5.13;;;20.80;49.10;;;;;;5094208;28;20267;-23
2022/01/17 04:25:05;;;;;;;6.23;5.20;;;20.90;48.90;;;;;;5093976;28;20209;-21
2022/01/17 04:27:32;;;;;;;7.20;5.40;;;20.80;48.70;;;;;;5075657;28;20169;-25
2022/01/17 04:29:57;;;;;;;5.73;5.20;;;20.70;48.80;;;;;;5093187;28;20262;-24
2022/01/17 04:32:23;;;;;;;6.60;5.60;;;20.70;48.90;;;;;;5093550;28;20269;-22
2022/01/17 04:34:49;;;;;;;6.60;5.40;;;20.50;49.00;;;;;;5092624;28;20186;-24
2022/01/17 04:37:16;;;;;;;5.33;4.80;;;20.30;49.20;;;;;;5094514;28;20268;-23
2022/01/17 04:39:42;;;;;;;7.17;5.70;;;20.10;49.70;;;;;;5093716;28;20168;-23
2022/01/17 04:42:12;;;;;;;6.57;5.40;;;19.90;50.00;;;;;;5076696;28;20175;-23
2022/01/17 04:47:29;;;;;;;5.83;5.00;;;19.50;50.90;;;;;;5093268;28;20272;-22
2022/01/17 04:49:55;;;;;;;6.63;5.33;;;19.40;51.60;;;;;;5094373;28;20359;-22
2022/01/17 04:52:21;;;;;;;6.80;5.30;;;19.20;51.50;;;;;;5076416;28;20282;-24
2022/01/17 04:54:53;;;;;;;5.93;4.97;;;19.10;51.90;;;;;;5092735;28;20206;-22
2022/01/17 04:57:20;;;;;;;6.27;5.20;;;18.90;52.20;;;;;;5094045;28;20471;-22
2022/01/17 04:59:49;;;;;;;7.17;5.50;;;18.70;52.80;;;;;;5093700;28;20190;-21
2022/01/17 05:02:15;;;;;;;7.27;5.80;;;18.60;53.20;;;;;;5092819;28;20417;-25
2022/01/17 05:04:45;;;;;;;8.47;5.80;;;18.30;53.80;;;;;;5093747;28;20195;-22
2022/01/17 05:07:11;;;;;;;5.93;5.17;;;18.10;54.40;;;;;;5079179;28;20171;-24
2022/01/17 05:09:39;;;;;;;7.77;5.70;;;18.00;55.10;;;;;;5079789;28;20777;-22
2022/01/17 05:12:05;;;;;;;6.87;5.23;;;17.80;55.70;;;;;;5075282;28;20372;-24
2022/01/17 05:14:31;;;;;;;6.90;5.33;;;17.60;56.30;;;;;;5093858;28;20525;-21
2022/01/17 05:17:09;;;;;;;6.93;5.13;;;17.50;56.80;;;;;;5093627;28;20346;-23
2022/01/17 05:19:49;;;;;;;8.30;5.10;;;17.40;57.40;;;;;;5093326;28;20176;-21
2022/01/17 05:22:19;;;;;;;6.60;5.33;;;17.30;57.90;;;;;;5093605;28;20244;-23
2022/01/17 05:24:45;;;;;;;6.77;5.43;;;17.20;58.30;;;;;;5073815;28;20244;-22
2022/01/17 05:27:13;;;;;;;5.50;4.80;;;17.10;58.70;;;;;;5093187;28;20178;-22
2022/01/17 05:29:39;;;;;;;6.20;5.23;;;17.10;59.10;;;;;;5078343;28;20175;-21
2022/01/17 05:32:05;;;;;;;7.13;5.53;;;17.00;59.40;;;;;;5096737;28;20542;-22
2022/01/17 05:34:34;;;;;;;6.03;5.13;;;16.90;59.80;;;;;;5078500;28;20550;-23
2022/01/17 05:37:03;;;;;;;7.10;5.40;;;16.80;60.20;;;;;;5077337;28;20169;-23
2022/01/17 05:39:28;;;;;;;8.17;5.10;;;16.80;60.70;;;;;;5076243;28;20337;-22
2022/01/17 05:41:54;;;;;;;5.77;5.10;;;16.70;61.10;;;;;;5076633;28;20173;-22
2022/01/17 05:44:20;;;;;;;6.07;4.97;;;16.60;61.40;;;;;;5077907;28;20203;-19
2022/01/17 05:46:45;;;;;;;6.73;4.80;;;16.60;62.00;;;;;;5094769;28;20181;-23
2022/01/17 05:49:11;;;;;;;7.37;5.40;;;16.50;62.30;;;;;;5093881;28;20174;-24
2022/01/17 05:51:37;;;;;;;6.30;5.33;;;16.50;62.40;;;;;;5094821;28;20174;-24
2022/01/17 05:54:03;;;;;;;6.77;5.33;;;16.70;61.70;;;;;;5094897;28;20506;-21
2022/01/17 05:56:29;;;;;;;6.33;5.10;;;17.00;60.00;;;;;;5076232;28;20276;-24
2022/01/17 05:58:55;;;;;;;6.63;5.27;;;17.20;59.00;;;;;;5076580;28;20273;-22
2022/01/17 06:01:20;;;;;;;6.03;4.93;;;17.50;58.10;;;;;;5093817;28;20166;-22
2022/01/17 06:03:46;;;;;;;5.97;4.87;;;17.80;56.80;;;;;;5094383;28;20199;-23
2022/01/17 06:06:12;;;;;;;6.67;4.60;;;18.20;55.50;;;;;;5093197;28;20175;-23
2022/01/17 06:08:38;;;;;;;6.60;4.93;;;18.60;54.30;;;;;;5091864;28;20178;-22
2022/01/17 06:11:04;;;;;;;5.47;4.60;;;18.90;53.30;;;;;;5075809;28;20217;-21
2022/01/17 06:13:30;;;;;;;6.33;4.80;;;19.20;52.60;;;;;;5092571;28;20157;-23
2022/01/17 06:15:56;;;;;;;6.77;4.93;;;19.30;52.10;;;;;;5092156;28;20204;-21
2022/01/17 06:18:21;;;;;;;5.70;4.57;;;19.40;51.80;;;;;;5092650;28;20182;-21
2022/01/17 06:20:47;;;;;;;5.77;4.57;;;19.30;51.60;;;;;;5073876;28;20560;-22
2022/01/17 06:23:13;;;;;;;8.03;5.10;;;19.20;51.80;;;;;;5092684;28;20167;-23
2022/01/17 06:25:39;;;;;;;6.03;4.70;;;18.90;52.20;;;;;;5074096;28;20723;-24
2022/01/17 06:28:05;;;;;;;7.70;4.60;;;18.70;52.70;;;;;;5074234;28;20372;-22
2022/01/17 06:30:30;;;;;;;6.33;4.20;;;18.50;53.20;;;;;;5074480;28;20466;-23
2022/01/17 06:32:57;;;;;;;8.53;4.60;;;18.30;53.70;;;;;;5073183;28;20510;-23
2022/01/17 06:35:23;;;;;;;5.97;4.67;;;18.10;54.40;;;;;;5073375;28;20189;-21
2022/01/17 06:37:49;;;;;;;4.90;4.40;;;17.90;55.10;;;;;;5091712;28;20173;-23
2022/01/17 06:40:15;;;;;;;5.80;4.67;;;17.70;56.20;;;;;;5072785;28;20261;-22
2022/01/17 06:42:41;;;;;;;6.50;4.77;;;17.50;56.90;;;;;;5090202;28;20173;-22
2022/01/17 06:45:07;;;;;;;5.63;4.60;;;17.40;57.10;;;;;;5071586;28;20273;-23
2022/01/17 06:47:35;;;;;;;5.57;4.57;;;17.20;57.60;;;;;;5090418;28;20637;-22
2022/01/17 06:50:04;;;;;;;5.77;4.53;;;17.10;58.20;;;;;;5090523;28;20598;-22
2022/01/17 06:52:30;;;;;;;5.33;4.60;;;17.00;58.60;;;;;;5089023;28;20167;-21
2022/01/17 06:54:57;;;;;;;6.07;4.47;;;16.90;59.00;;;;;;5070013;28;20178;-24
2022/01/17 06:57:24;;;;;;;6.17;4.77;;;16.80;59.40;;;;;;5087259;28;20193;-22
2022/01/17 06:59:51;;;;;;;7.00;4.53;;;16.70;59.80;;;;;;5069522;28;20183;-25
2022/01/17 07:02:17;;;;;;;5.47;4.50;;;16.60;60.30;;;;;;5076491;28;20671;-22
2022/01/17 07:04:43;;;;;;;7.10;4.87;;;16.60;61.00;;;;;;5076389;28;20200;-24
2022/01/17 07:07:08;;;;;;;18.47;4.80;;;16.50;61.80;;;;;;5076264;28;20182;-22
2022/01/17 07:09:36;;;;;;;5.73;4.10;;;16.50;62.60;;;;;;5093065;28;20636;-23
2022/01/17 07:12:03;;;;;;;5.83;4.40;;;16.50;62.70;;;;;;5097276;28;20176;-25
2022/01/17 07:14:29;;;;;;;6.47;4.37;;;16.80;61.70;;;;;;5096685;28;20173;-23
2022/01/17 07:16:55;;;;;;;5.33;4.07;;;17.00;60.50;;;;;;5096424;28;20241;-25
2022/01/17 07:19:21;;;;;;;6.73;4.30;;;17.20;59.70;;;;;;5096195;28;20168;-24
2022/01/17 07:21:47;;;;;;;9.93;4.87;;;17.40;59.10;;;;;;5081222;28;20283;-23
2022/01/17 07:24:13;;;;;;;10.20;4.53;;;17.60;58.70;;;;;;5076222;28;20225;-22
2022/01/17 07:26:38;;;;;;;7.50;4.37;;;17.70;58.00;;;;;;5058295;28;20172;-23
2022/01/17 07:29:08;;;;;;;7.87;4.53;;;18.00;57.20;;;;;;5075993;28;20587;-21
2022/01/17 07:31:35;;;;;;;8.37;4.37;;;18.30;56.40;;;;;;5076239;28;20191;-23
2022/01/17 07:34:01;;;;;;;5.73;4.10;;;18.30;55.90;;;;;;5059184;28;20185;-22
2022/01/17 07:36:27;;;;;;;5.60;4.30;;;18.30;56.00;;;;;;5075492;28;20436;-26
2022/01/17 07:38:52;;;;;;;9.10;4.57;;;18.20;56.00;;;;;;5076068;28;20170;-23
2022/01/17 07:41:18;;;;;;;6.77;4.50;;;18.20;56.20;;;;;;5076545;28;20183;-22
2022/01/17 07:43:44;;;;;;;7.27;4.30;;;18.00;56.50;;;;;;5075876;28;20166;-23
2022/01/17 07:46:25;;;;;;;6.67;4.33;;;17.90;57.20;;;;;;5076253;28;20198;-24
2022/01/17 07:49:10;;;;;;;5.87;4.30;;;17.80;57.20;;;;;;5058824;28;20489;-23
2022/01/17 07:51:40;;;;;;;5.60;4.40;;;17.60;57.80;;;;;;5075456;28;20202;-24
2022/01/17 07:54:07;;;;;;;7.40;4.60;;;17.50;58.40;;;;;;5058367;28;20288;-22
2022/01/17 07:56:33;;;;;;;8.40;4.57;;;17.30;58.90;;;;;;5075148;28;20150;-22
2022/01/17 07:58:59;;;;;;;6.17;4.10;;;17.20;59.30;;;;;;5075724;28;20167;-26
2022/01/17 08:01:26;;;;;;;7.33;4.47;;;17.10;59.80;;;;;;5075782;28;20438;-22
2022/01/17 08:03:51;;;;;;;8.57;4.37;;;17.00;60.30;;;;;;5075433;28;20590;-25
2022/01/17 08:06:17;;;;;;;8.93;4.37;;;16.90;60.90;;;;;;5057508;28;20378;-24
2022/01/17 08:08:44;;;;;;;8.00;4.20;;;16.80;61.40;;;;;;5075151;28;20491;-25
2022/01/17 08:11:10;;;;;;;5.67;4.33;;;16.70;62.10;;;;;;5075502;28;20261;-25
2022/01/17 08:13:36;;;;;;;5.87;4.00;;;16.70;62.50;;;;;;5075752;28;20236;-22
2022/01/17 08:16:04;;;;;;;5.63;4.07;;;16.60;62.90;;;;;;5057443;28;20252;-24
2022/01/17 08:18:31;;;;;;;7.57;4.43;;;16.60;63.30;;;;;;5057759;28;20170;-25
2022/01/17 08:20:58;;;;;;;6.50;4.40;;;16.50;63.60;;;;;;5054248;28;20189;-23
2022/01/17 08:23:24;;;;;;;5.13;4.10;;;16.50;63.80;;;;;;5068078;28;20551;-23
2022/01/17 08:25:50;;;;;;;5.63;4.10;;;16.60;63.60;;;;;;5067436;28;20204;-22
2022/01/17 08:28:16;;;;;;;6.60;4.10;;;16.80;62.10;;;;;;5068596;28;20182;-23
2022/01/17 08:30:42;;;;;;;4.70;3.90;;;17.10;60.10;;;;;;5051049;28;20228;-25
2022/01/17 08:33:08;;;;;;;5.63;4.30;;;17.40;58.80;;;;;;5069185;28;20175;-24
2022/01/17 08:35:33;;;;;;;6.07;4.13;;;17.60;58.00;;;;;;5034087;28;20268;-22
2022/01/17 08:37:59;;;;;;;5.93;4.13;;;17.80;57.30;;;;;;5068427;28;20262;-23
2022/01/17 08:40:25;;;;;;;6.13;4.27;;;17.80;57.00;;;;;;5069014;28;20256;-25
2022/01/17 08:42:52;;;;;;;6.20;3.90;;;17.70;57.20;;;;;;5066980;28;20180;-22
2022/01/17 08:45:21;;;;;;;5.90;3.83;;;17.60;57.70;;;;;;5050598;28;20218;-23
2022/01/17 08:47:49;;;;;;;4.93;4.03;;;17.40;58.30;;;;;;5049672;28;20180;-23
2022/01/17 08:50:17;;;;;;;5.93;4.13;;;17.20;58.90;;;;;;5067990;28;20201;-22
2022/01/17 08:52:47;;;;;;;5.50;4.07;;;17.10;59.40;;;;;;5050956;28;20233;-24
2022/01/17 08:55:13;;;;;;;5.33;4.00;;;17.00;60.00;;;;;;5050020;28;20177;-24
2022/01/17 08:57:39;;;;;;;7.53;4.10;;;16.90;60.90;;;;;;5050939;28;20170;-22
2022/01/17 09:00:10;;;;;;;4.40;4.00;;;16.80;61.70;;;;;;5069417;28;20185;-24
2022/01/17 09:02:36;;;;;;;6.30;4.57;;;16.70;62.10;;;;;;5069606;28;20186;-23
2022/01/17 09:05:02;;;;;;;4.93;4.10;;;16.70;62.80;;;;;;5072766;28;20210;-24
2022/01/17 09:07:28;;;;;;;5.13;4.00;;;16.70;62.80;;;;;;5072621;28;20163;-23
2022/01/17 09:09:53;;;;;;;6.57;4.20;;;16.80;62.80;;;;;;5053921;28;20176;-26
2022/01/17 09:12:19;;;;;;;9.73;4.03;;;16.80;62.70;;;;;;5053902;28;20168;-23
2022/01/17 09:14:45;;;;;;;6.03;3.90;;;16.90;62.30;;;;;;5071479;28;20196;-22
2022/01/17 09:17:13;;;;;;;7.13;4.30;;;17.00;61.60;;;;;;5073016;28;20197;-20
2022/01/17 09:19:40;;;;;;;8.03;3.97;;;17.10;61.00;;;;;;5053534;28;20719;-24
2022/01/17 09:22:07;;;;;;;5.37;3.67;;;17.30;59.90;;;;;;5071529;28;20265;-26
2022/01/17 09:24:36;;;;;;;5.57;3.80;;;17.50;59.10;;;;;;5053697;28;20326;-22
2022/01/17 09:27:03;;;;;;;8.33;4.07;;;17.60;58.40;;;;;;5053579;28;20171;-21
2022/01/17 09:29:29;;;;;;;6.23;3.60;;;17.80;57.50;;;;;;5071774;28;20779;-26
2022/01/17 09:31:55;;;;;;;5.03;3.73;;;17.90;57.10;;;;;;5053829;28;20172;-24
2022/01/17 09:34:21;;;;;;;5.07;3.47;;;17.80;57.10;;;;;;5071307;28;20521;-24
2022/01/17 09:36:47;;;;;;;5.60;3.67;;;17.80;57.30;;;;;;5053072;28;20488;-22
2022/01/17 09:39:14;;;;;;;5.27;3.50;;;17.80;57.30;;;;;;5053294;28;20188;-24
2022/01/17 09:41:40;;;;;;;5.47;3.83;;;17.80;57.10;;;;;;5071175;28;20190;-24
2022/01/17 09:44:06;;;;;;;5.30;3.50;;;17.80;57.00;;;;;;5052513;28;20171;-26
2022/01/17 09:46:38;;;;;;;5.33;3.60;;;17.80;57.10;;;;;;5053508;28;20175;-23
2022/01/17 09:49:21;;;;;;;5.27;4.00;;;17.70;57.30;;;;;;5071905;28;20186;-22
2022/01/17 09:54:26;;;;;;;5.73;3.80;;;17.50;58.20;;;;;;5069599;28;20209;-24
2022/01/17 09:56:53;;;;;;;5.23;3.50;;;17.30;58.70;;;;;;5051052;28;20238;-24
2022/01/17 09:59:20;;;;;;;5.33;3.93;;;17.20;59.30;;;;;;5070864;28;20184;-24
2022/01/17 10:01:46;;;;;;;6.07;4.17;;;17.10;59.60;;;;;;5070493;28;20175;-23
2022/01/17 10:04:13;;;;;;;5.77;3.80;;;17.00;60.40;;;;;;5070077;28;20173;-23
2022/01/17 10:06:40;;;;;;;5.43;3.40;;;17.00;61.00;;;;;;5069907;28;20780;-24
2022/01/17 10:09:17;;;;;;;7.37;4.00;;;16.90;61.40;;;;;;5034367;28;20200;-22
2022/01/17 10:12:13;;;;;;;5.43;3.70;;;16.80;62.00;;;;;;5068397;28;20244;-24
2022/01/17 10:14:40;;;;;;;5.10;3.43;;;16.80;62.40;;;;;;5049699;28;20177;-25
2022/01/17 10:17:11;;;;;;;5.27;3.67;;;16.70;62.80;;;;;;5069668;28;20190;-28
2022/01/17 10:19:38;;;;;;;5.90;3.70;;;16.70;63.10;;;;;;5071329;28;20175;-24
2022/01/17 10:22:16;;;;;;;5.40;4.20;;;16.70;64.10;;;;;;5069918;28;20176;-23
2022/01/17 10:35:26;;;;;;;5.37;3.73;;;17.20;60.10;;;;;;5070708;28;20289;-22
2022/01/17 10:37:55;;;;;;;7.10;4.07;;;17.60;58.70;;;;;;5069431;28;20239;-21
2022/01/17 10:40:21;;;;;;;6.67;3.63;;;18.00;57.20;;;;;;5070191;28;20235;-24
2022/01/17 10:42:48;;;;;;;5.90;3.30;;;18.00;56.90;;;;;;5051585;28;20233;-24
2022/01/17 10:45:24;;;;;;;5.97;3.80;;;17.90;57.10;;;;;;5070116;28;20589;-24
2022/01/17 10:47:57;;;;;;;4.17;3.27;;;17.90;57.00;;;;;;5052020;28;20171;-23
2022/01/17 10:50:30;;;;;;;6.13;3.77;;;18.00;56.80;;;;;;5070583;28;20533;-23
2022/01/17 10:52:58;;;;;;;5.17;3.67;;;18.20;56.30;;;;;;5069174;28;20177;-25
2022/01/17 10:55:35;;;;;;;6.13;4.00;;;18.20;56.00;;;;;;5069840;28;20495;-23
2022/01/17 10:58:02;;;;;;;6.90;3.57;;;18.20;56.20;;;;;;5069961;28;20413;-23
2022/01/17 11:00:34;;;;;;;6.47;3.30;;;18.00;56.60;;;;;;5069007;28;20165;-25
2022/01/17 11:03:09;;;;;;;5.43;3.33;;;17.90;57.00;;;;;;5068665;28;20166;-23
2022/01/17 11:05:38;;;;;;;9.87;4.20;;;17.80;57.50;;;;;;5063666;28;20275;-25
2022/01/17 11:08:05;;;;;;;6.43;3.70;;;17.50;58.40;;;;;;5051645;28;20171;-24
2022/01/17 11:10:32;;;;;;;6.27;3.80;;;17.40;59.20;;;;;;5070311;28;20181;-22
2022/01/17 11:13:02;;;;;;;9.00;3.80;;;17.30;59.90;;;;;;5069502;28;20166;-22
2022/01/17 11:15:33;;;;;;;7.70;3.43;;;17.10;60.80;;;;;;5068822;28;20170;-24
2022/01/17 11:18:05;;;;;;;8.50;3.70;;;17.00;61.80;;;;;;5050205;28;20188;-24
2022/01/17 11:20:32;;;;;;;4.50;3.40;;;16.90;62.60;;;;;;5069864;28;20169;-24
2022/01/17 11:22:59;;;;;;;6.83;3.43;;;16.80;63.50;;;;;;5070012;28;20172;-24
2022/01/17 11:25:32;;;;;;;8.13;3.77;;;16.80;64.40;;;;;;5068563;28;20368;-23
2022/01/17 11:28:00;;;;;;;6.70;3.90;;;16.70;65.30;;;;;;5069344;28;20169;-25
2022/01/17 11:30:26;;;;;;;7.33;3.60;;;16.60;66.30;;;;;;5051698;28;20166;-22
2022/01/17 11:32:55;;;;;;;5.53;3.63;;;16.60;67.00;;;;;;5050598;28;20276;-23
2022/01/17 11:35:22;;;;;;;8.30;3.80;;;16.50;67.70;;;;;;5050275;28;20169;-22
2022/01/17 11:37:52;;;;;;;8.13;4.27;;;16.50;68.40;;;;;;5067473;28;20177;-23
2022/01/17 11:40:22;;;;;;;6.90;3.93;;;16.50;69.00;;;;;;5067397;28;20165;-23
2022/01/17 11:42:52;;;;;;;11.63;3.60;;;16.50;69.70;;;;;;5068130;28;20270;-24
2022/01/17 11:45:23;;;;;;;7.07;3.77;;;16.60;69.60;;;;;;5067700;28;20303;-22
2022/01/17 11:47:49;;;;;;;8.87;4.30;;;16.70;69.00;;;;;;5049920;28;20407;-24
2022/01/17 11:50:27;;;;;;;10.93;4.10;;;17.00;66.80;;;;;;5050732;28;20238;-24
2022/01/17 11:52:58;;;;;;;5.93;4.10;;;17.30;64.90;;;;;;5067839;28;20234;-24
2022/01/17 11:55:43;;;;;;;8.73;4.37;;;17.30;64.10;;;;;;5068273;28;20454;-25
2022/01/17 11:58:31;;;;;;;9.37;4.27;;;17.40;63.00;;;;;;5049265;28;20179;-26
2022/01/17 12:00:57;;;;;;;8.20;4.03;;;17.30;63.80;;;;;;5066952;28;20170;-24
2022/01/17 12:03:50;;;;;;;9.23;4.40;;;17.10;64.60;;;;;;5048855;28;20584;-22
2022/01/17 12:06:27;;;;;;;8.90;3.70;;;17.00;65.70;;;;;;5047372;28;20269;-25
2022/01/17 12:09:25;;;;;;;8.27;3.90;;;16.90;66.50;;;;;;5067451;28;20693;-25
2022/01/17 12:12:13;;;;;;;9.70;4.20;;;16.70;67.50;;;;;;5049696;28;20175;-23
2022/01/17 12:14:54;;;;;;;5.10;3.80;;;16.70;68.30;;;;;;5066172;28;20560;-23
2022/01/17 12:17:20;;;;;;;8.73;4.40;;;16.70;68.30;;;;;;5066621;28;20444;-25
2022/01/17 12:20:04;;;;;;;9.90;4.23;;;17.00;66.60;;;;;;5048431;28;20219;-23
2022/01/17 12:22:31;;;;;;;6.60;4.10;;;17.20;65.00;;;;;;5049825;28;20173;-22
2022/01/17 12:24:57;;;;;;;10.40;4.63;;;17.20;64.50;;;;;;5067545;28;20294;-23
2022/01/17 12:27:27;;;;;;;7.53;3.83;;;17.30;63.80;;;;;;5067505;28;20182;-26
2022/01/17 12:29:54;;;;;;;8.80;4.37;;;17.50;62.70;;;;;;5049246;28;20399;-24
2022/01/17 12:32:26;;;;;;;11.80;4.70;;;17.60;61.30;;;;;;5066538;28;20161;-25
2022/01/17 12:35:23;;;;;;;6.93;4.50;;;17.70;60.90;;;;;;5048504;28;20586;-25
2022/01/17 12:38:03;;;;;;;8.97;4.10;;;17.80;60.50;;;;;;5069085;28;20189;-24
2022/01/17 12:40:37;;;;;;;8.83;3.87;;;17.70;60.70;;;;;;5070251;28;20170;-23
2022/01/17 12:43:12;;;;;;;7.57;4.20;;;17.70;61.10;;;;;;5052613;28;20182;-23
2022/01/17 12:45:41;;;;;;;9.37;4.30;;;17.60;61.30;;;;;;5052809;28;20384;-23
2022/01/17 12:48:16;;;;;;;7.47;4.30;;;17.60;61.90;;;;;;5054420;28;20170;-22
2022/01/17 12:50:45;;;;;;;7.20;4.07;;;17.50;62.50;;;;;;5053078;28;20168;-26
2022/01/17 12:53:15;;;;;;;8.83;4.27;;;17.40;63.10;;;;;;5053984;28;20362;-25
2022/01/17 12:55:44;;;;;;;6.97;4.07;;;17.30;64.10;;;;;;5053734;28;20247;-23
2022/01/17 12:58:21;;;;;;;9.67;4.30;;;17.20;65.00;;;;;;5070717;28;20200;-23
2022/01/17 13:00:54;;;;;;;6.00;3.70;;;17.10;65.70;;;;;;5052796;28;20328;-23
2022/01/17 13:03:23;;;;;;;8.27;4.10;;;17.00;66.50;;;;;;5052215;28;20194;-26
2022/01/17 13:05:51;;;;;;;8.00;3.60;;;17.00;67.30;;;;;;5070979;28;20429;-22
2022/01/17 13:08:18;;;;;;;9.43;4.33;;;16.90;68.10;;;;;;5052582;28;20432;-25
2022/01/17 13:10:44;;;;;;;6.43;3.63;;;16.80;68.80;;;;;;5070504;28;20190;-21
2022/01/17 13:13:16;;;;;;;7.83;4.20;;;16.80;69.10;;;;;;5070879;28;20505;-25
2022/01/17 13:15:55;;;;;;;6.93;3.77;;;16.70;69.90;;;;;;5071057;28;20175;-24
2022/01/17 13:18:21;;;;;;;8.27;3.73;;;16.70;70.70;;;;;;5053553;28;20258;-24
2022/01/17 13:20:47;;;;;;;9.97;4.50;;;16.70;71.20;;;;;;5071547;28;20496;-21
2022/01/17 13:23:17;;;;;;;8.33;4.07;;;16.60;71.40;;;;;;5055068;28;20202;-23
2022/01/17 13:25:43;;;;;;;9.57;4.53;;;16.60;72.20;;;;;;5070366;28;20209;-23